Time;durP1;ratioP1;P1;durP2;ratioP2;P2;SDS_P1;SDS_P2;PMS_P1;PMS_P2;Temp;Humidity;BMP_temperature;BMP_pressure;BME280_temperature;BME280_humidity;BME280_pressure;Samples;Min_cycle;Max_cycle;Signal;HPM_P1;HPM_P2
2022/12/11 00:01:55;;;;;;;25.80;10.27;;;;;;;;;;5066945;28;20161;-79
2022/12/11 00:04:20;;;;;;;26.63;9.75;;;;;;;;;;5068632;28;20037;-79
2022/12/11 00:06:49;;;;;;;32.45;10.40;;;;;;;;;;5063696;28;20060;-79
2022/12/11 00:09:18;;;;;;;37.05;10.32;;;;;;;;;;5057602;28;20106;-79
2022/12/11 00:11:43;;;;;;;38.92;10.45;;;;;;;;;;5060382;28;20151;-79
2022/12/11 00:14:09;;;;;;;39.65;10.50;;;;;;;;;;5039331;28;20037;-80
2022/12/11 00:16:34;;;;;;;31.27;10.32;;;;;;;;;;5056574;28;20103;-79
2022/12/11 00:19:00;;;;;;;25.70;9.40;;;;;;;;;;5054564;28;20043;-78
2022/12/11 00:21:25;;;;;;;28.25;8.98;;;;;;;;;;5054568;28;20112;-78
2022/12/11 00:23:50;;;;;;;43.35;9.63;;;;;;;;;;5036460;28;20033;-77
2022/12/11 00:26:16;;;;;;;63.28;10.02;;;;;;;;;;5036726;28;20111;-78
2022/12/11 00:28:42;;;;;;;36.30;9.73;;;;;;;;;;5004801;28;20090;-78
2022/12/11 00:31:08;;;;;;;31.25;8.25;;;;;;;;;;5036445;28;20119;-78
2022/12/11 00:33:34;;;;;;;140.70;11.75;;;;;;;;;;5037432;28;20059;-79
2022/12/11 00:35:59;;;;;;;96.65;10.90;;;;;;;;;;5063973;28;20032;-78
2022/12/11 00:38:25;;;;;;;49.28;10.88;;;;;;;;;;5038359;28;20032;-79
2022/12/11 00:40:50;;;;;;;102.22;11.75;;;;;;;;;;5035702;28;20039;-77
2022/12/11 00:43:16;;;;;;;33.53;10.10;;;;;;;;;;5053026;28;20565;-77
2022/12/11 00:45:42;;;;;;;63.28;10.68;;;;;;;;;;5019259;28;20043;-79
2022/12/11 00:48:07;;;;;;;;;;;;;;;;;;5039819;28;20024;-77
2022/12/11 00:50:33;;;;;;;86.80;11.52;;;;;;;;;;5037506;28;19919;-79
2022/12/11 00:52:59;;;;;;;67.03;11.52;;;;;;;;;;5039789;28;20483;-79
2022/12/11 00:55:26;;;;;;;212.27;15.45;;;;;;;;;;5055720;28;20090;-79
2022/12/11 00:57:52;;;;;;;33.13;9.70;;;;;;;;;;5040466;28;20031;-79
2022/12/11 01:00:17;;;;;;;33.40;10.38;;;;;;;;;;5037538;28;20029;-79
2022/12/11 01:02:43;;;;;;;114.63;12.85;;;;;;;;;;5047764;28;20515;-79
2022/12/11 01:05:09;;;;;;;45.92;11.27;;;;;;;;;;5053325;28;20534;-78
2022/12/11 01:07:34;;;;;;;93.25;13.05;;;;;;;;;;5053842;28;20033;-78
2022/12/11 01:12:44;;;;;;;143.98;79.05;;;;;;;;;;5038048;28;20041;-79
2022/12/11 01:15:10;;;;;;;46.60;18.67;;;;;;;;;;5030863;28;20535;-78
2022/12/11 01:17:36;;;;;;;46.53;11.90;;;;;;;;;;5019228;28;20054;-78
2022/12/11 01:20:03;;;;;;;64.10;12.63;;;;;;;;;;5018930;28;20588;-79
2022/12/11 01:22:28;;;;;;;38.58;11.55;;;;;;;;;;4997041;28;20060;-79
2022/12/11 01:24:54;;;;;;;35.05;11.63;;;;;;;;;;5019508;28;20029;-79
2022/12/11 01:27:19;;;;;;;36.28;11.52;;;;;;;;;;5011316;28;20029;-79
2022/12/11 01:29:45;;;;;;;45.25;11.25;;;;;;;;;;5030837;28;20520;-78
2022/12/11 01:32:10;;;;;;;40.17;10.02;;;;;;;;;;5024701;28;20033;-79
2022/12/11 01:34:36;;;;;;;48.42;11.10;;;;;;;;;;5012086;28;20467;-79
2022/12/11 01:37:01;;;;;;;139.57;11.43;;;;;;;;;;5027192;28;20582;-79
2022/12/11 01:39:27;;;;;;;379.05;18.83;;;;;;;;;;5029881;28;20025;-79
2022/12/11 01:41:52;;;;;;;;;;;;;;;;;;5012703;28;20120;-79
2022/12/11 01:44:18;;;;;;;53.05;11.00;;;;;;;;;;5023161;28;20357;-79
2022/12/11 01:46:43;;;;;;;63.80;12.43;;;;;;;;;;5016041;28;20116;-80
2022/12/11 01:49:10;;;;;;;108.55;11.45;;;;;;;;;;5028178;28;20481;-78
2022/12/11 01:51:40;;;;;;;38.22;10.65;;;;;;;;;;5014707;28;20064;-78
2022/12/11 01:54:06;;;;;;;46.10;10.50;;;;;;;;;;5029230;28;20484;-78
2022/12/11 01:56:32;;;;;;;63.42;11.52;;;;;;;;;;5019738;28;20056;-78
2022/12/11 01:58:59;;;;;;;34.83;10.32;;;;;;;;;;5012093;28;20029;-78
2022/12/11 02:01:32;;;;;;;39.42;10.48;;;;;;;;;;5021380;28;20042;-78
2022/12/11 02:03:57;;;;;;;50.17;10.68;;;;;;;;;;5005063;28;20039;-78
2022/12/11 02:06:30;;;;;;;37.35;10.15;;;;;;;;;;5028801;28;20112;-78
2022/12/11 02:08:55;;;;;;;49.78;11.40;;;;;;;;;;5026917;28;20095;-78
2022/12/11 02:11:21;;;;;;;138.38;13.48;;;;;;;;;;5021107;28;20443;-78
2022/12/11 02:14:07;;;;;;;42.40;11.35;;;;;;;;;;5030100;28;20040;-78
2022/12/11 02:16:52;;;;;;;42.05;11.30;;;;;;;;;;4994964;28;20081;-78
2022/12/11 02:19:27;;;;;;;32.90;11.02;;;;;;;;;;4991048;28;20030;-78
2022/12/11 02:21:52;;;;;;;41.33;11.50;;;;;;;;;;5015980;28;20034;-78
2022/12/11 02:24:36;;;;;;;33.15;11.27;;;;;;;;;;5015078;28;20133;-78
2022/12/11 02:27:07;;;;;;;45.00;13.35;;;;;;;;;;5016094;28;20091;-78
2022/12/11 02:29:37;;;;;;;58.72;14.30;;;;;;;;;;4995559;28;20073;-78
2022/12/11 02:32:26;;;;;;;49.20;13.60;;;;;;;;;;5030605;28;20065;-78
2022/12/11 02:35:00;;;;;;;38.83;12.35;;;;;;;;;;5007826;28;20421;-78
2022/12/11 02:37:27;;;;;;;51.65;14.07;;;;;;;;;;5005650;28;20026;-78
2022/12/11 02:39:53;;;;;;;36.03;12.32;;;;;;;;;;5014669;28;20052;-78
2022/12/11 02:42:18;;;;;;;34.97;11.95;;;;;;;;;;4997430;28;20038;-80
2022/12/11 02:44:44;;;;;;;40.30;12.93;;;;;;;;;;5027223;28;20028;-78
2022/12/11 02:47:13;;;;;;;31.70;11.30;;;;;;;;;;4997237;28;20034;-80
2022/12/11 02:49:39;;;;;;;32.60;11.82;;;;;;;;;;5027306;28;20030;-78
2022/12/11 02:52:04;;;;;;;;;;;;;;;;;;5012693;28;20034;-78
2022/12/11 02:54:30;;;;;;;28.85;9.73;;;;;;;;;;5015624;28;20300;-78
2022/12/11 02:56:58;;;;;;;38.30;10.98;;;;;;;;;;5014767;28;20029;-78
2022/12/11 02:59:25;;;;;;;37.65;12.18;;;;;;;;;;5012329;28;20124;-78
2022/12/11 03:01:51;;;;;;;36.65;12.88;;;;;;;;;;5014085;28;20026;-78
2022/12/11 03:04:16;;;;;;;43.83;12.30;;;;;;;;;;5028524;28;20034;-78
2022/12/11 03:06:43;;;;;;;30.77;10.70;;;;;;;;;;5015364;28;20044;-78
2022/12/11 03:09:11;;;;;;;41.33;10.30;;;;;;;;;;4997881;28;20033;-78
2022/12/11 03:11:36;;;;;;;38.20;10.60;;;;;;;;;;5014557;28;20033;-78
2022/12/11 03:14:02;;;;;;;30.48;10.73;;;;;;;;;;5015089;28;20037;-78
2022/12/11 03:16:46;;;;;;;38.05;9.95;;;;;;;;;;5038635;28;20424;-78
2022/12/11 03:19:12;;;;;;;43.72;10.82;;;;;;;;;;5037980;28;20036;-79
2022/12/11 03:21:37;;;;;;;30.73;9.90;;;;;;;;;;5042496;28;20021;-77
2022/12/11 03:24:07;;;;;;;33.53;10.38;;;;;;;;;;5034904;28;20044;-79
2022/12/11 03:26:37;;;;;;;32.33;10.48;;;;;;;;;;5035006;28;20041;-77
2022/12/11 03:29:03;;;;;;;39.45;10.82;;;;;;;;;;5000221;28;20138;-78
2022/12/11 03:31:29;;;;;;;38.58;10.07;;;;;;;;;;5034711;28;20037;-78
2022/12/11 03:33:55;;;;;;;37.75;10.25;;;;;;;;;;5033774;28;20034;-77
2022/12/11 03:36:21;;;;;;;38.67;11.02;;;;;;;;;;5033929;28;20100;-78
2022/12/11 03:38:50;;;;;;;47.35;11.05;;;;;;;;;;5034182;28;20048;-78
2022/12/11 03:41:17;;;;;;;27.38;9.70;;;;;;;;;;5001020;28;20051;-78
2022/12/11 03:43:42;;;;;;;30.20;10.20;;;;;;;;;;5034470;28;20722;-79
2022/12/11 03:46:08;;;;;;;26.55;9.73;;;;;;;;;;5033180;28;20105;-78
2022/12/11 03:48:36;;;;;;;27.30;9.27;;;;;;;;;;5037361;28;20072;-78
2022/12/11 03:51:03;;;;;;;25.00;9.80;;;;;;;;;;5018732;28;20054;-78
2022/12/11 03:53:28;;;;;;;36.03;10.07;;;;;;;;;;5016872;28;20025;-78
2022/12/11 03:55:54;;;;;;;34.50;10.52;;;;;;;;;;5033126;28;20026;-79
2022/12/11 03:58:19;;;;;;;29.00;9.30;;;;;;;;;;5033766;28;20091;-78
2022/12/11 04:00:45;;;;;;;23.55;8.55;;;;;;;;;;5014632;28;20040;-78
2022/12/11 04:03:13;;;;;;;24.95;8.15;;;;;;;;;;5034621;28;20451;-79
2022/12/11 04:05:40;;;;;;;25.48;8.25;;;;;;;;;;5043051;28;20493;-79
2022/12/11 04:08:05;;;;;;;27.70;8.88;;;;;;;;;;5033056;28;20068;-78
2022/12/11 04:10:31;;;;;;;31.48;9.77;;;;;;;;;;5035092;28;20033;-78
2022/12/11 04:12:56;;;;;;;24.52;8.52;;;;;;;;;;5034527;28;20033;-79
2022/12/11 04:15:22;;;;;;;31.23;9.52;;;;;;;;;;5005519;28;20060;-79
2022/12/11 04:26:05;;;;;;;23.40;8.77;;;;;;;;;;5014946;28;20033;-79
2022/12/11 04:28:30;;;;;;;24.48;9.50;;;;;;;;;;4996169;28;20084;-78
2022/12/11 04:30:56;;;;;;;28.80;9.52;;;;;;;;;;5015410;28;20552;-80
2022/12/11 04:33:21;;;;;;;24.17;7.93;;;;;;;;;;4999794;28;20080;-79
2022/12/11 04:35:46;;;;;;;24.63;8.73;;;;;;;;;;5015998;28;20037;-79
2022/12/11 04:38:12;;;;;;;30.60;8.95;;;;;;;;;;5018601;28;20030;-79
2022/12/11 04:40:37;;;;;;;25.67;8.40;;;;;;;;;;5005025;28;20038;-79
2022/12/11 04:43:03;;;;;;;28.00;8.55;;;;;;;;;;5017355;28;20048;-80
2022/12/11 04:45:28;;;;;;;34.55;10.07;;;;;;;;;;4995907;28;20113;-79
2022/12/11 04:47:54;;;;;;;37.72;9.43;;;;;;;;;;5017358;28;20397;-79
2022/12/11 04:50:19;;;;;;;19.35;7.60;;;;;;;;;;5015935;28;20033;-79
2022/12/11 04:52:45;;;;;;;23.65;7.97;;;;;;;;;;5017483;28;20042;-80
2022/12/11 04:55:11;;;;;;;22.55;8.25;;;;;;;;;;5001588;28;20026;-79
2022/12/11 04:57:36;;;;;;;27.83;8.70;;;;;;;;;;5018605;28;20129;-79
2022/12/11 05:00:03;;;;;;;28.88;8.75;;;;;;;;;;5019437;28;20037;-78
2022/12/11 05:02:29;;;;;;;31.48;9.05;;;;;;;;;;5018497;28;20044;-78
2022/12/11 05:04:54;;;;;;;31.55;8.50;;;;;;;;;;5021587;28;20564;-79
2022/12/11 05:07:20;;;;;;;32.15;9.05;;;;;;;;;;5019388;28;20029;-78
2022/12/11 05:09:45;;;;;;;23.95;8.07;;;;;;;;;;5022346;28;20033;-79
2022/12/11 05:12:11;;;;;;;24.08;8.23;;;;;;;;;;5021183;28;20113;-78
2022/12/11 05:14:36;;;;;;;27.10;9.68;;;;;;;;;;5032970;28;20041;-78
2022/12/11 05:17:02;;;;;;;30.52;10.50;;;;;;;;;;5047660;28;20384;-80
2022/12/11 05:19:27;;;;;;;27.15;9.73;;;;;;;;;;5052427;28;20040;-78
2022/12/11 05:21:54;;;;;;;27.05;9.00;;;;;;;;;;5052722;28;20147;-78
2022/12/11 05:24:19;;;;;;;25.48;8.80;;;;;;;;;;5034631;28;20060;-78
2022/12/11 05:26:45;;;;;;;25.50;8.85;;;;;;;;;;5053549;28;20045;-78
2022/12/11 05:29:11;;;;;;;18.90;7.70;;;;;;;;;;5059823;28;20086;-78
2022/12/11 05:31:36;;;;;;;25.95;8.50;;;;;;;;;;5057663;28;20036;-78
2022/12/11 05:34:02;;;;;;;24.85;7.88;;;;;;;;;;5035125;28;20040;-78
2022/12/11 05:36:28;;;;;;;21.23;8.00;;;;;;;;;;5052119;28;20029;-78
2022/12/11 05:38:54;;;;;;;21.67;7.90;;;;;;;;;;5018351;28;20041;-78
2022/12/11 05:41:20;;;;;;;16.90;6.85;;;;;;;;;;5035105;28;20074;-80
2022/12/11 05:43:46;;;;;;;17.05;7.43;;;;;;;;;;5017648;28;20041;-79
2022/12/11 05:46:12;;;;;;;17.50;6.78;;;;;;;;;;5034350;28;20170;-78
2022/12/11 05:48:38;;;;;;;19.77;6.72;;;;;;;;;;5017688;28;20547;-79
2022/12/11 05:51:03;;;;;;;14.90;6.97;;;;;;;;;;5033583;28;20112;-78
2022/12/11 05:53:29;;;;;;;17.40;6.43;;;;;;;;;;5030334;28;20036;-80
2022/12/11 05:55:59;;;;;;;17.65;6.32;;;;;;;;;;5017652;28;20056;-81
2022/12/11 05:58:25;;;;;;;16.33;6.57;;;;;;;;;;5034451;28;20031;-78
2022/12/11 06:00:51;;;;;;;14.40;6.45;;;;;;;;;;5052894;28;20040;-80
2022/12/11 06:03:16;;;;;;;12.80;6.18;;;;;;;;;;5061881;28;20495;-79
2022/12/11 06:05:42;;;;;;;12.32;6.18;;;;;;;;;;5068091;28;20032;-80
2022/12/11 06:08:07;;;;;;;17.25;7.03;;;;;;;;;;5045288;28;20051;-78
2022/12/11 06:10:33;;;;;;;17.55;7.10;;;;;;;;;;5042610;28;20044;-79
2022/12/11 06:12:58;;;;;;;16.83;7.85;;;;;;;;;;5035148;28;20033;-80
2022/12/11 06:15:24;;;;;;;19.83;9.43;;;;;;;;;;5030005;28;20401;-80
2022/12/11 06:17:49;;;;;;;17.52;7.97;;;;;;;;;;5018593;28;20507;-80
2022/12/11 06:20:15;;;;;;;19.52;8.25;;;;;;;;;;5012792;28;20424;-79
2022/12/11 06:22:40;;;;;;;14.98;7.22;;;;;;;;;;5018822;28;20559;-80
2022/12/11 06:25:06;;;;;;;17.85;7.38;;;;;;;;;;5019304;28;20112;-78
2022/12/11 06:27:31;;;;;;;18.60;8.10;;;;;;;;;;5014516;28;20034;-79
2022/12/11 06:29:57;;;;;;;16.25;8.68;;;;;;;;;;5016274;28;20026;-79
2022/12/11 06:32:22;;;;;;;15.27;7.95;;;;;;;;;;5015553;28;20503;-79
2022/12/11 06:34:48;;;;;;;14.48;7.65;;;;;;;;;;5014849;28;20029;-78
2022/12/11 06:37:13;;;;;;;12.77;6.70;;;;;;;;;;4999103;28;20409;-79
2022/12/11 06:39:39;;;;;;;13.38;7.05;;;;;;;;;;5024254;28;20029;-80
2022/12/11 06:42:05;;;;;;;13.63;7.47;;;;;;;;;;5016191;28;20568;-78
2022/12/11 06:44:30;;;;;;;16.95;7.70;;;;;;;;;;5016032;28;20053;-78
2022/12/11 06:46:56;;;;;;;14.48;7.45;;;;;;;;;;5020291;28;20407;-80
2022/12/11 06:49:21;;;;;;;18.33;9.82;;;;;;;;;;5014786;28;20030;-78
2022/12/11 06:51:48;;;;;;;15.88;9.40;;;;;;;;;;5011325;28;20030;-78
2022/12/11 06:54:14;;;;;;;19.55;11.02;;;;;;;;;;5011474;28;20034;-80
2022/12/11 06:56:39;;;;;;;16.92;8.55;;;;;;;;;;5012244;28;20593;-79
2022/12/11 06:59:06;;;;;;;15.30;8.07;;;;;;;;;;5012855;28;20120;-80
2022/12/11 07:01:34;;;;;;;17.23;7.65;;;;;;;;;;5011949;28;20065;-78
2022/12/11 07:04:00;;;;;;;13.32;7.15;;;;;;;;;;5012244;28;20057;-79
2022/12/11 07:06:26;;;;;;;12.95;7.80;;;;;;;;;;5013880;28;20116;-80
2022/12/11 07:08:51;;;;;;;13.75;7.43;;;;;;;;;;4996116;28;20077;-79
2022/12/11 07:11:17;;;;;;;11.95;7.25;;;;;;;;;;5014610;28;20037;-78
2022/12/11 07:13:43;;;;;;;35.92;21.67;;;;;;;;;;5015807;28;20125;-80
2022/12/11 07:16:11;;;;;;;12.10;7.35;;;;;;;;;;5049767;28;20053;-80
2022/12/11 07:18:37;;;;;;;13.38;7.13;;;;;;;;;;5034850;28;20044;-79
2022/12/11 07:21:03;;;;;;;13.38;7.40;;;;;;;;;;5038841;28;20036;-81
2022/12/11 07:23:28;;;;;;;11.77;7.00;;;;;;;;;;5037096;28;20392;-78
2022/12/11 07:25:54;;;;;;;10.65;6.35;;;;;;;;;;5054083;28;20120;-81
2022/12/11 07:28:19;;;;;;;13.88;6.45;;;;;;;;;;5035617;28;20439;-80
2022/12/11 07:30:45;;;;;;;12.27;6.45;;;;;;;;;;5036597;28;20086;-82
2022/12/11 07:33:10;;;;;;;32.65;19.58;;;;;;;;;;5054737;28;20480;-81
2022/12/11 07:35:36;;;;;;;14.82;7.60;;;;;;;;;;5054527;28;20033;-80
2022/12/11 07:38:01;;;;;;;12.82;7.45;;;;;;;;;;5020852;28;20787;-81
2022/12/11 07:40:27;;;;;;;12.05;6.97;;;;;;;;;;5036529;28;20058;-81
2022/12/11 07:42:52;;;;;;;12.35;7.22;;;;;;;;;;5053924;28;20032;-81
2022/12/11 07:45:18;;;;;;;13.00;6.80;;;;;;;;;;5036358;28;20045;-84
2022/12/11 07:47:43;;;;;;;12.18;6.65;;;;;;;;;;5053051;28;20064;-83
2022/12/11 07:50:09;;;;;;;9.73;6.18;;;;;;;;;;5019952;28;20037;-83
2022/12/11 07:52:34;;;;;;;11.38;6.72;;;;;;;;;;5054041;28;20031;-82
2022/12/11 07:55:00;;;;;;;12.68;7.45;;;;;;;;;;5058906;28;20033;-81
2022/12/11 07:57:26;;;;;;;11.18;6.60;;;;;;;;;;5054166;28;20416;-81
2022/12/11 07:59:51;;;;;;;10.50;6.45;;;;;;;;;;5053331;28;20039;-79
2022/12/11 08:02:17;;;;;;;12.07;6.40;;;;;;;;;;5035670;28;20025;-82
2022/12/11 08:04:42;;;;;;;10.32;6.43;;;;;;;;;;5053504;28;20057;-81
2022/12/11 08:07:08;;;;;;;11.60;6.53;;;;;;;;;;5054460;28;20041;-82
2022/12/11 08:09:33;;;;;;;12.20;7.28;;;;;;;;;;5054184;28;20045;-82
2022/12/11 08:11:59;;;;;;;13.43;7.07;;;;;;;;;;5048542;28;20025;-83
2022/12/11 08:14:24;;;;;;;12.63;7.30;;;;;;;;;;5030543;28;20445;-81
2022/12/11 08:16:50;;;;;;;15.52;8.98;;;;;;;;;;5052366;28;20389;-82
2022/12/11 08:19:15;;;;;;;15.65;8.50;;;;;;;;;;5053887;28;20056;-82
2022/12/11 08:21:41;;;;;;;9.65;6.43;;;;;;;;;;5056576;28;20028;-80
2022/12/11 08:24:07;;;;;;;10.63;6.03;;;;;;;;;;5038716;28;20048;-82
2022/12/11 08:26:32;;;;;;;12.88;6.32;;;;;;;;;;5045811;28;20036;-82
2022/12/11 08:28:58;;;;;;;14.98;6.60;;;;;;;;;;5055961;28;20041;-82
2022/12/11 08:31:23;;;;;;;12.02;6.30;;;;;;;;;;5067153;28;20178;-81
2022/12/11 08:33:49;;;;;;;9.77;6.10;;;;;;;;;;5071518;28;20082;-81
2022/12/11 08:36:15;;;;;;;10.95;5.80;;;;;;;;;;5054207;28;20032;-82
2022/12/11 08:38:41;;;;;;;10.93;6.05;;;;;;;;;;5041132;28;20391;-82
2022/12/11 08:41:09;;;;;;;10.35;6.47;;;;;;;;;;5071351;28;20040;-83
2022/12/11 08:43:35;;;;;;;9.75;5.25;;;;;;;;;;5048156;28;20128;-82
2022/12/11 08:46:00;;;;;;;9.27;5.40;;;;;;;;;;5053644;28;20559;-82
2022/12/11 08:48:26;;;;;;;11.25;6.85;;;;;;;;;;5037227;28;20028;-81
2022/12/11 08:50:51;;;;;;;9.23;5.57;;;;;;;;;;5071721;28;20032;-82
2022/12/11 08:53:17;;;;;;;9.57;5.95;;;;;;;;;;5050431;28;20087;-82
2022/12/11 08:55:42;;;;;;;10.25;5.28;;;;;;;;;;5038702;28;20035;-82
2022/12/11 08:58:08;;;;;;;10.52;6.43;;;;;;;;;;5065067;28;20029;-83
2022/12/11 09:00:34;;;;;;;13.63;7.55;;;;;;;;;;5058372;28;20040;-82
2022/12/11 09:03:00;;;;;;;15.13;7.45;;;;;;;;;;5051017;28;20035;-81
2022/12/11 09:05:25;;;;;;;9.43;6.30;;;;;;;;;;5044766;28;20024;-81
2022/12/11 09:07:51;;;;;;;10.73;6.65;;;;;;;;;;5069241;28;20372;-81
2022/12/11 09:10:16;;;;;;;14.10;7.70;;;;;;;;;;5051179;28;20444;-81
2022/12/11 09:12:42;;;;;;;12.68;6.38;;;;;;;;;;5069244;28;20032;-82
2022/12/11 09:15:07;;;;;;;22.13;14.63;;;;;;;;;;5068196;28;20143;-83
2022/12/11 09:17:33;;;;;;;14.70;6.53;;;;;;;;;;5062691;28;20062;-83
2022/12/11 09:19:59;;;;;;;14.40;7.10;;;;;;;;;;5061228;28;20025;-82
2022/12/11 09:22:24;;;;;;;10.80;6.78;;;;;;;;;;5067586;28;20099;-82
2022/12/11 09:24:50;;;;;;;13.45;6.75;;;;;;;;;;5042758;28;20399;-83
2022/12/11 09:27:15;;;;;;;17.63;9.13;;;;;;;;;;5042661;28;20533;-81
2022/12/11 09:29:41;;;;;;;17.45;7.15;;;;;;;;;;5021287;28;20028;-81
2022/12/11 09:32:06;;;;;;;12.85;6.80;;;;;;;;;;5032419;28;20025;-83
2022/12/11 09:34:32;;;;;;;12.95;6.13;;;;;;;;;;5065756;28;20131;-80
2022/12/11 09:36:58;;;;;;;11.73;6.32;;;;;;;;;;5053246;28;20081;-82
2022/12/11 09:39:24;;;;;;;13.70;6.28;;;;;;;;;;5052512;28;20075;-82
2022/12/11 09:41:55;;;;;;;14.00;6.53;;;;;;;;;;5015184;28;20033;-82
2022/12/11 09:44:34;;;;;;;17.92;9.38;;;;;;;;;;5043591;28;20438;-82
2022/12/11 09:47:00;;;;;;;19.25;9.48;;;;;;;;;;5003195;28;20047;-82
2022/12/11 09:49:36;;;;;;;11.82;6.80;;;;;;;;;;5037235;28;20108;-81
2022/12/11 09:52:16;;;;;;;14.15;7.18;;;;;;;;;;5039725;28;20083;-81
2022/12/11 09:54:49;;;;;;;15.57;6.32;;;;;;;;;;5035060;28;20104;-81
2022/12/11 09:57:27;;;;;;;14.10;6.38;;;;;;;;;;5014336;28;20059;-81
2022/12/11 10:00:03;;;;;;;13.00;6.60;;;;;;;;;;5041220;28;20037;-81
2022/12/11 10:02:45;;;;;;;13.10;5.45;;;;;;;;;;5061525;28;20040;-82
2022/12/11 10:05:17;;;;;;;12.98;6.32;;;;;;;;;;5065159;28;20027;-81
2022/12/11 10:08:02;;;;;;;14.02;7.07;;;;;;;;;;5061583;28;20112;-81
2022/12/11 10:10:31;;;;;;;15.43;6.78;;;;;;;;;;5041408;28;20036;-82
2022/12/11 10:13:02;;;;;;;12.93;6.78;;;;;;;;;;5060187;28;20082;-83
2022/12/11 10:15:34;;;;;;;13.73;7.32;;;;;;;;;;5041475;28;20057;-80
2022/12/11 10:17:59;;;;;;;12.43;7.10;;;;;;;;;;5043025;28;20052;-78
2022/12/11 10:20:35;;;;;;;11.63;6.80;;;;;;;;;;5024218;28;20033;-80
2022/12/11 10:23:01;;;;;;;11.10;6.10;;;;;;;;;;5031817;28;20046;-81
2022/12/11 10:25:31;;;;;;;12.18;7.03;;;;;;;;;;5033311;28;20057;-82
2022/12/11 10:27:56;;;;;;;10.82;6.70;;;;;;;;;;5029554;28;20037;-81
2022/12/11 10:30:23;;;;;;;9.35;5.90;;;;;;;;;;5013209;28;20024;-80
2022/12/11 10:32:49;;;;;;;11.13;6.22;;;;;;;;;;5014752;28;20061;-82
2022/12/11 10:35:34;;;;;;;9.63;6.13;;;;;;;;;;5030810;28;20029;-79
2022/12/11 10:38:16;;;;;;;9.30;5.40;;;;;;;;;;5036210;28;20037;-80
2022/12/11 10:41:00;;;;;;;9.07;6.13;;;;;;;;;;5012344;28;20045;-81
2022/12/11 10:43:33;;;;;;;10.13;5.65;;;;;;;;;;5015958;28;20037;-80
2022/12/11 10:45:58;;;;;;;10.10;5.72;;;;;;;;;;5033765;28;20140;-81
2022/12/11 10:48:24;;;;;;;9.27;6.10;;;;;;;;;;5033386;28;20124;-80
2022/12/11 10:51:08;;;;;;;9.95;5.63;;;;;;;;;;5034640;28;20036;-81
2022/12/11 10:53:33;;;;;;;8.90;5.50;;;;;;;;;;5037135;28;20045;-82
2022/12/11 10:55:59;;;;;;;10.60;6.07;;;;;;;;;;5049845;28;20035;-81
2022/12/11 10:58:30;;;;;;;8.48;5.55;;;;;;;;;;5047369;28;20492;-79
2022/12/11 11:01:09;;;;;;;10.48;6.20;;;;;;;;;;5049282;28;20044;-82
2022/12/11 11:03:35;;;;;;;11.43;7.18;;;;;;;;;;5047811;28;20523;-80
2022/12/11 11:06:01;;;;;;;;;;;;;;;;;;5017021;28;20030;-81
2022/12/11 11:08:26;;;;;;;10.07;6.10;;;;;;;;;;5045096;28;19924;-81
2022/12/11 11:10:55;;;;;;;13.05;6.50;;;;;;;;;;5050476;28;20028;-81
2022/12/11 11:13:23;;;;;;;12.73;6.53;;;;;;;;;;5028910;28;20053;-81
2022/12/11 11:15:49;;;;;;;11.70;6.30;;;;;;;;;;5064515;28;20053;-80
2022/12/11 11:18:15;;;;;;;;;;;;;;;;;;5036675;28;20486;-80
2022/12/11 11:20:42;;;;;;;13.63;6.72;;;;;;;;;;5064847;28;19908;-80
2022/12/11 11:23:10;;;;;;;11.13;6.93;;;;;;;;;;5016053;28;20029;-80
2022/12/11 11:25:35;;;;;;;13.43;7.07;;;;;;;;;;5057794;28;20511;-80
2022/12/11 11:28:02;;;;;;;12.32;6.25;;;;;;;;;;5053326;28;20033;-81
2022/12/11 11:30:29;;;;;;;11.25;6.88;;;;;;;;;;5052332;28;20028;-80
2022/12/11 11:32:55;;;;;;;10.15;6.20;;;;;;;;;;5019707;28;20125;-80
2022/12/11 11:35:22;;;;;;;8.80;5.65;;;;;;;;;;5054860;28;20013;-81
2022/12/11 11:37:59;;;;;;;12.25;7.00;;;;;;;;;;5036983;28;20381;-80
2022/12/11 11:40:26;;;;;;;12.70;6.57;;;;;;;;;;5026421;28;20123;-80
2022/12/11 11:42:56;;;;;;;13.18;8.10;;;;;;;;;;5022137;28;20017;-81
2022/12/11 11:45:26;;;;;;;16.02;9.60;;;;;;;;;;5025055;28;20044;-82
2022/12/11 11:48:18;;;;;;;16.75;9.98;;;;;;;;;;5027822;28;20048;-81
2022/12/11 11:50:44;;;;;;;17.75;9.60;;;;;;;;;;5005462;28;20069;-81
2022/12/11 11:53:09;;;;;;;;;;;;;;;;;;5042090;28;20418;-80
2022/12/11 11:56:10;;;;;;;17.70;8.52;;;;;;;;;;5064477;28;19919;-80
2022/12/11 11:58:36;;;;;;;15.23;9.40;;;;;;;;;;4958118;28;20039;-80
2022/12/11 12:01:01;;;;;;;17.73;9.07;;;;;;;;;;5043653;28;20055;-79
2022/12/11 12:03:27;;;;;;;14.10;8.27;;;;;;;;;;5035584;28;20032;-81
2022/12/11 12:05:57;;;;;;;12.57;7.75;;;;;;;;;;5023244;28;20032;-80
2022/12/11 12:08:22;;;;;;;13.43;7.63;;;;;;;;;;5053877;28;20396;-81
2022/12/11 12:10:56;;;;;;;13.18;7.70;;;;;;;;;;5052765;28;20021;-80
2022/12/11 12:13:25;;;;;;;15.35;8.07;;;;;;;;;;5041308;28;20039;-81
2022/12/11 12:15:54;;;;;;;12.32;7.32;;;;;;;;;;5040400;28;20056;-80
2022/12/11 12:18:38;;;;;;;12.32;6.72;;;;;;;;;;5015259;28;20040;-80
2022/12/11 12:21:09;;;;;;;12.07;6.07;;;;;;;;;;5040947;28;20037;-80
2022/12/11 12:23:49;;;;;;;9.65;5.82;;;;;;;;;;5035764;28;20044;-80
2022/12/11 12:26:15;;;;;;;10.38;6.30;;;;;;;;;;5024803;28;20033;-79
2022/12/11 12:28:44;;;;;;;16.35;7.75;;;;;;;;;;5062333;28;20025;-81
2022/12/11 12:31:15;;;;;;;13.30;8.80;;;;;;;;;;5034668;28;20056;-81
2022/12/11 12:33:51;;;;;;;14.23;8.93;;;;;;;;;;5054161;28;20040;-80
2022/12/11 12:36:35;;;;;;;20.08;11.73;;;;;;;;;;5054068;28;20037;-80
2022/12/11 12:39:01;;;;;;;16.88;10.45;;;;;;;;;;5053342;28;20060;-80
2022/12/11 12:41:47;;;;;;;16.88;10.15;;;;;;;;;;5036295;28;20038;-80
2022/12/11 12:44:16;;;;;;;14.02;8.77;;;;;;;;;;5051239;28;20045;-80
2022/12/11 12:46:51;;;;;;;13.65;8.30;;;;;;;;;;5035696;28;20033;-81
2022/12/11 12:49:31;;;;;;;10.65;6.28;;;;;;;;;;5055721;28;20052;-80
2022/12/11 12:51:57;;;;;;;10.65;5.75;;;;;;;;;;5035825;28;20028;-80
2022/12/11 12:54:22;;;;;;;11.25;5.95;;;;;;;;;;5034874;28;20096;-80
2022/12/11 12:56:48;;;;;;;9.80;5.68;;;;;;;;;;5060174;28;20037;-80
2022/12/11 12:59:20;;;;;;;9.93;5.70;;;;;;;;;;5035187;28;20028;-81
2022/12/11 13:01:47;;;;;;;10.43;6.25;;;;;;;;;;5051875;28;20033;-80
2022/12/11 13:04:12;;;;;;;;;;;;;;;;;;5035211;28;20387;-80
2022/12/11 13:06:39;;;;;;;10.48;6.30;;;;;;;;;;5052008;28;19913;-81
2022/12/11 13:09:18;;;;;;;10.68;6.68;;;;;;;;;;5034315;28;20400;-80
2022/12/11 13:11:44;;;;;;;15.10;7.07;;;;;;;;;;5041957;28;20045;-80
2022/12/11 13:14:13;;;;;;;12.52;7.80;;;;;;;;;;5030411;28;20028;-80
2022/12/11 13:16:39;;;;;;;12.10;6.22;;;;;;;;;;5060841;28;20057;-80
2022/12/11 13:19:17;;;;;;;12.27;6.65;;;;;;;;;;5020381;28;20047;-80
2022/12/11 13:21:43;;;;;;;10.68;6.45;;;;;;;;;;5053493;28;20384;-80
2022/12/11 13:24:13;;;;;;;10.68;6.88;;;;;;;;;;5017890;28;20025;-81
2022/12/11 13:26:38;;;;;;;12.43;7.97;;;;;;;;;;5052610;28;20166;-82
2022/12/11 13:29:03;;;;;;;12.80;7.32;;;;;;;;;;5035213;28;20107;-82
2022/12/11 13:31:39;;;;;;;12.25;7.03;;;;;;;;;;5043058;28;20033;-83
2022/12/11 13:34:12;;;;;;;11.45;7.22;;;;;;;;;;5034952;28;20047;-81
2022/12/11 13:36:38;;;;;;;8.85;6.07;;;;;;;;;;5049356;28;20031;-82
2022/12/11 13:39:05;;;;;;;11.32;6.88;;;;;;;;;;5057781;28;20391;-82
2022/12/11 13:41:31;;;;;;;10.07;6.70;;;;;;;;;;5040871;28;20033;-82
2022/12/11 13:43:56;;;;;;;11.82;7.35;;;;;;;;;;5028724;28;20028;-85
2022/12/11 13:46:32;;;;;;;14.65;8.50;;;;;;;;;;5068697;28;20086;-80
2022/12/11 13:48:59;;;;;;;12.75;8.15;;;;;;;;;;5042995;28;20036;-85
2022/12/11 13:51:25;;;;;;;12.73;8.20;;;;;;;;;;5041467;28;20078;-81
2022/12/11 13:53:51;;;;;;;;;;;;;;;;;;5048975;28;20089;-81
2022/12/11 13:56:20;;;;;;;17.83;9.57;;;;;;;;;;5058088;28;19912;-82
2022/12/11 13:58:46;;;;;;;15.63;8.82;;;;;;;;;;5024420;28;20547;-81
2022/12/11 14:01:13;;;;;;;15.88;9.23;;;;;;;;;;5042339;28;20028;-80
2022/12/11 14:03:39;;;;;;;13.35;8.50;;;;;;;;;;5048547;28;20063;-80
2022/12/11 14:06:07;;;;;;;14.63;8.80;;;;;;;;;;5048661;28;20085;-81
2022/12/11 14:08:34;;;;;;;13.13;8.48;;;;;;;;;;5039217;28;20033;-81
2022/12/11 14:11:00;;;;;;;11.15;7.82;;;;;;;;;;5034347;28;20504;-82
2022/12/11 14:13:26;;;;;;;12.43;8.60;;;;;;;;;;5052296;28;20032;-83
2022/12/11 14:15:52;;;;;;;14.40;9.45;;;;;;;;;;5051065;28;20438;-83
2022/12/11 14:18:19;;;;;;;15.32;9.82;;;;;;;;;;5022075;28;20040;-82
2022/12/11 14:20:45;;;;;;;17.08;10.73;;;;;;;;;;5027497;28;20033;-83
2022/12/11 14:23:17;;;;;;;17.50;10.50;;;;;;;;;;5028302;28;20029;-82
2022/12/11 14:25:50;;;;;;;14.23;9.77;;;;;;;;;;5063502;28;20543;-79
2022/12/11 14:28:16;;;;;;;18.85;10.30;;;;;;;;;;5064876;28;20024;-81
2022/12/11 14:30:46;;;;;;;20.20;11.50;;;;;;;;;;5026083;28;20043;-84
2022/12/11 14:33:11;;;;;;;14.00;9.20;;;;;;;;;;5053822;28;20033;-82
2022/12/11 14:35:38;;;;;;;13.50;8.63;;;;;;;;;;5050188;28;20024;-82
2022/12/11 14:38:07;;;;;;;14.75;9.35;;;;;;;;;;5031616;28;20170;-84
2022/12/11 14:40:37;;;;;;;12.95;9.25;;;;;;;;;;5020839;28;20039;-85
2022/12/11 14:43:06;;;;;;;12.65;8.52;;;;;;;;;;5041212;28;20043;-86